Time;durP1;ratioP1;P1;durP2;ratioP2;P2;SDS_P1;SDS_P2;PMS_P1;PMS_P2;Temp;Humidity;BMP_temperature;BMP_pressure;BME280_temperature;BME280_humidity;BME280_pressure;Samples;Min_cycle;Max_cycle;Signal;HPM_P1;HPM_P2
2021/03/12 00:00:52;;;;;;;1.00;0.60;;;7.90;99.90;;;;;;5012726;28;20966;-49
2021/03/12 00:05:49;;;;;;;1.43;0.60;;;8.40;99.90;;;;;;4997917;22;20560;-52
2021/03/12 00:08:16;;;;;;;0.63;0.43;;;8.40;99.90;;;;;;4986821;28;20463;-51
2021/03/12 00:10:44;;;;;;;1.10;0.70;;;8.30;99.90;;;;;;4992885;28;20450;-51
2021/03/12 00:13:11;;;;;;;1.27;0.60;;;8.30;99.90;;;;;;4992766;28;20980;-51
2021/03/12 00:15:39;;;;;;;1.63;0.60;;;8.20;99.90;;;;;;4992478;28;21053;-51
2021/03/12 00:18:05;;;;;;;0.80;0.60;;;8.20;99.90;;;;;;4992841;28;20449;-51
2021/03/12 00:20:34;;;;;;;0.70;0.60;;;8.10;99.90;;;;;;4992549;28;20478;-51
2021/03/12 00:23:01;;;;;;;4.03;0.60;;;8.10;99.90;;;;;;4978556;28;20451;-51
2021/03/12 00:25:32;;;;;;;2.30;0.60;;;8.10;99.90;;;;;;4983327;28;20540;-51
2021/03/12 00:27:59;;;;;;;0.70;0.60;;;8.10;99.90;;;;;;4992805;28;20449;-51
2021/03/12 00:30:25;;;;;;;1.10;0.60;;;8.00;99.90;;;;;;4992787;28;20445;-52
2021/03/12 00:32:52;;;;;;;0.60;0.60;;;8.20;99.90;;;;;;4990366;28;20457;-51
2021/03/12 00:35:19;;;;;;;6.77;1.00;;;8.30;99.90;;;;;;4991873;28;20509;-51
2021/03/12 00:37:45;;;;;;;2.20;0.80;;;8.30;99.90;;;;;;4992417;28;20464;-51
2021/03/12 00:40:14;;;;;;;1.57;0.60;;;8.30;99.90;;;;;;4992621;28;20461;-52
2021/03/12 00:42:41;;;;;;;4.97;0.90;;;8.30;99.90;;;;;;4991035;28;20450;-51
2021/03/12 00:45:09;;;;;;;1.07;0.50;;;8.20;99.90;;;;;;4992047;28;20474;-51
2021/03/12 00:47:36;;;;;;;0.60;0.50;;;7.90;99.90;;;;;;4987784;28;20454;-51
2021/03/12 00:50:05;;;;;;;0.60;0.40;;;7.80;99.90;;;;;;4991382;28;20485;-52
2021/03/12 00:52:31;;;;;;;2.03;0.50;;;7.40;99.90;;;;;;4992354;28;20446;-51
2021/03/12 00:54:58;;;;;;;1.50;0.40;;;7.00;99.90;;;;;;4991926;28;20490;-51
2021/03/12 00:57:24;;;;;;;0.67;0.30;;;6.90;99.90;;;;;;4991579;28;20451;-51
2021/03/12 00:59:51;;;;;;;0.60;0.40;;;6.80;99.90;;;;;;4992076;28;20446;-51
2021/03/12 01:02:17;;;;;;;0.60;0.30;;;7.10;99.90;;;;;;4985048;28;20451;-52
2021/03/12 01:04:43;;;;;;;2.00;0.40;;;7.30;99.90;;;;;;4990862;28;20895;-51
2021/03/12 01:07:11;;;;;;;0.60;0.43;;;7.40;99.90;;;;;;4992053;28;20477;-52
2021/03/12 01:09:37;;;;;;;0.60;0.40;;;7.40;99.90;;;;;;4991730;28;20481;-52
2021/03/12 01:12:05;;;;;;;1.27;0.40;;;7.40;99.90;;;;;;4991269;28;20485;-52
2021/03/12 01:14:31;;;;;;;0.50;0.37;;;7.40;99.90;;;;;;4991146;28;20864;-52
2021/03/12 01:16:58;;;;;;;1.47;0.40;;;7.40;99.90;;;;;;4991241;28;20461;-51
2021/03/12 01:19:24;;;;;;;1.67;0.50;;;7.40;99.90;;;;;;4991548;28;20454;-52
2021/03/12 01:21:51;;;;;;;0.60;0.40;;;7.40;99.90;;;;;;4991844;28;20951;-50
2021/03/12 01:24:18;;;;;;;0.60;0.40;;;7.50;99.90;;;;;;4990250;28;20469;-51
2021/03/12 01:26:45;;;;;;;0.50;0.37;;;7.50;99.90;;;;;;4972404;28;20482;-52
2021/03/12 01:29:14;;;;;;;1.07;0.40;;;7.30;99.90;;;;;;4987565;28;20447;-51
2021/03/12 01:31:41;;;;;;;0.60;0.40;;;7.30;99.90;;;;;;4983272;28;20458;-51
2021/03/12 01:34:10;;;;;;;1.10;0.37;;;7.60;99.90;;;;;;4991812;28;20920;-51
2021/03/12 01:36:36;;;;;;;0.60;0.40;;;7.70;99.90;;;;;;4991816;28;20457;-51
2021/03/12 01:39:03;;;;;;;0.77;0.77;;;7.60;99.90;;;;;;4991915;28;20799;-51
2021/03/12 01:41:31;;;;;;;1.00;0.40;;;7.60;99.90;;;;;;4991421;28;20512;-51
2021/03/12 01:43:57;;;;;;;2.47;0.50;;;7.60;99.90;;;;;;4990860;28;20472;-51
2021/03/12 01:46:23;;;;;;;1.27;0.50;;;7.60;99.90;;;;;;4986314;28;20453;-51
2021/03/12 01:48:50;;;;;;;3.73;0.50;;;7.70;99.90;;;;;;4981557;28;20593;-51
2021/03/12 01:51:17;;;;;;;1.63;0.40;;;7.70;99.90;;;;;;4972027;28;20510;-52
2021/03/12 01:53:43;;;;;;;1.73;0.60;;;7.70;99.90;;;;;;4971882;28;20941;-52
2021/03/12 01:56:10;;;;;;;0.50;0.50;;;7.60;99.90;;;;;;4981037;28;20481;-51
2021/03/12 01:58:38;;;;;;;0.83;0.50;;;7.70;99.90;;;;;;4991521;28;20451;-51
2021/03/12 02:01:05;;;;;;;2.30;0.40;;;7.60;99.90;;;;;;4982532;28;20458;-50
2021/03/12 02:03:33;;;;;;;2.30;0.70;;;7.50;99.90;;;;;;4990903;28;20975;-51
2021/03/12 02:06:00;;;;;;;1.10;0.57;;;7.40;99.90;;;;;;4990819;28;20454;-51
2021/03/12 02:08:26;;;;;;;0.50;0.40;;;7.40;99.90;;;;;;4991220;28;20509;-51
2021/03/12 02:10:54;;;;;;;1.07;0.43;;;7.40;99.90;;;;;;4991197;28;20460;-52
2021/03/12 02:13:32;;;;;;;1.33;0.40;;;7.40;99.90;;;;;;4989851;28;20458;-51
2021/03/12 02:16:06;;;;;;;1.80;0.60;;;7.40;99.90;;;;;;4989394;28;20457;-51
2021/03/12 02:18:38;;;;;;;0.90;0.50;;;7.30;99.90;;;;;;4990677;28;20468;-51
2021/03/12 02:21:12;;;;;;;2.10;0.50;;;7.50;99.90;;;;;;4991119;28;20504;-51
2021/03/12 02:24:13;;;;;;;2.63;0.70;;;7.40;99.90;;;;;;4990129;28;20451;-50
2021/03/12 02:27:05;;;;;;;1.43;0.60;;;7.50;99.90;;;;;;4991424;28;20935;-51
2021/03/12 02:29:35;;;;;;;2.00;0.60;;;7.40;99.90;;;;;;4976920;28;20968;-51
2021/03/12 02:32:04;;;;;;;2.90;0.50;;;7.40;99.90;;;;;;4983378;28;20454;-51
2021/03/12 02:34:37;;;;;;;0.70;0.50;;;7.40;99.90;;;;;;4990453;28;20872;-50
2021/03/12 02:37:07;;;;;;;4.53;0.60;;;7.40;99.90;;;;;;4991145;28;20465;-50
2021/03/12 02:39:35;;;;;;;2.20;0.70;;;7.50;99.90;;;;;;4990687;28;20447;-51
2021/03/12 02:42:03;;;;;;;2.67;0.70;;;7.50;99.90;;;;;;4990901;28;20485;-51
2021/03/12 02:44:32;;;;;;;2.30;0.60;;;7.50;99.90;;;;;;4989966;28;20470;-50
2021/03/12 02:47:04;;;;;;;1.03;0.60;;;7.60;99.90;;;;;;4990803;28;20451;-50
2021/03/12 02:49:32;;;;;;;2.10;0.50;;;7.50;99.90;;;;;;4990307;28;20978;-50
2021/03/12 02:51:59;;;;;;;0.60;0.50;;;7.30;99.90;;;;;;4990173;28;20450;-51
2021/03/12 02:54:26;;;;;;;1.10;0.60;;;7.30;99.90;;;;;;4974546;28;20495;-51
2021/03/12 02:56:53;;;;;;;1.53;0.70;;;7.40;99.90;;;;;;4971367;28;20459;-51
2021/03/12 02:59:20;;;;;;;1.23;0.60;;;7.40;99.90;;;;;;4971564;28;20449;-50
2021/03/12 03:01:51;;;;;;;2.37;0.60;;;7.40;99.90;;;;;;4993708;28;21026;-51
2021/03/12 03:04:20;;;;;;;3.30;1.00;;;7.40;99.90;;;;;;4993679;28;20489;-50
2021/03/12 03:06:47;;;;;;;1.93;0.73;;;7.40;99.90;;;;;;4994147;28;20446;-51
2021/03/12 03:09:15;;;;;;;1.63;0.70;;;7.40;99.90;;;;;;4975191;28;20458;-51
2021/03/12 03:11:42;;;;;;;0.90;0.50;;;7.30;99.90;;;;;;4984179;28;20457;-51
2021/03/12 03:14:09;;;;;;;0.70;0.50;;;7.30;99.90;;;;;;4993736;28;20528;-51
2021/03/12 03:16:37;;;;;;;0.70;0.60;;;7.40;99.90;;;;;;4993705;28;20457;-51
2021/03/12 03:19:06;;;;;;;1.10;0.80;;;7.30;99.90;;;;;;4994059;28;20451;-51
2021/03/12 03:21:33;;;;;;;0.93;0.60;;;7.20;99.90;;;;;;4993016;28;20863;-51
2021/03/12 03:24:00;;;;;;;0.70;0.50;;;7.20;99.90;;;;;;4987938;28;20467;-51
2021/03/12 03:26:26;;;;;;;0.80;0.40;;;7.20;99.90;;;;;;4993891;28;20455;-50
2021/03/12 03:28:53;;;;;;;1.27;0.50;;;7.20;99.90;;;;;;4993735;28;20450;-51
2021/03/12 03:31:20;;;;;;;1.10;0.60;;;7.30;99.90;;;;;;4993598;28;20457;-50
2021/03/12 03:33:46;;;;;;;1.90;0.60;;;7.40;99.90;;;;;;4993334;28;20493;-51
2021/03/12 03:36:14;;;;;;;1.77;0.50;;;7.30;99.90;;;;;;4978482;28;20458;-51
2021/03/12 03:38:40;;;;;;;1.20;0.50;;;7.40;99.90;;;;;;4993750;28;20531;-51
2021/03/12 03:41:11;;;;;;;1.00;0.50;;;7.30;99.90;;;;;;4993651;28;20461;-51
2021/03/12 03:43:41;;;;;;;1.47;0.50;;;7.40;99.90;;;;;;4993550;28;20466;-50
2021/03/12 03:46:09;;;;;;;0.70;0.50;;;7.40;99.90;;;;;;4993366;28;20834;-51
2021/03/12 03:48:36;;;;;;;0.60;0.50;;;7.40;99.90;;;;;;4993406;28;20453;-51
2021/03/12 03:51:05;;;;;;;1.63;0.60;;;7.40;99.90;;;;;;4992993;28;20458;-51
2021/03/12 03:53:34;;;;;;;1.67;0.60;;;7.40;99.90;;;;;;4995215;28;20454;-50
2021/03/12 03:56:03;;;;;;;0.87;0.50;;;7.40;99.90;;;;;;5000826;28;20453;-51
2021/03/12 03:58:30;;;;;;;1.23;0.53;;;7.60;99.90;;;;;;4993167;28;20459;-51
2021/03/12 04:00:58;;;;;;;0.70;0.50;;;7.50;99.90;;;;;;5012343;28;20452;-50
2021/03/12 04:03:25;;;;;;;0.80;0.57;;;7.40;99.90;;;;;;5012810;28;20473;-51
2021/03/12 04:05:55;;;;;;;0.93;0.50;;;7.50;99.90;;;;;;4999647;28;20910;-51
2021/03/12 04:08:22;;;;;;;0.60;0.40;;;7.80;99.90;;;;;;4993394;28;20446;-50
2021/03/12 04:10:50;;;;;;;0.80;0.60;;;7.70;99.90;;;;;;4993225;28;20446;-51
2021/03/12 04:13:17;;;;;;;2.00;1.13;;;7.50;99.90;;;;;;5012686;28;20865;-51
2021/03/12 04:15:44;;;;;;;1.67;1.40;;;7.50;99.90;;;;;;4997942;28;20486;-51
2021/03/12 04:18:11;;;;;;;3.60;1.10;;;7.60;99.90;;;;;;4993389;28;20450;-50
2021/03/12 04:20:38;;;;;;;1.53;0.60;;;7.40;99.90;;;;;;4984907;28;20462;-51
2021/03/12 04:23:04;;;;;;;1.20;0.77;;;7.40;99.90;;;;;;4995433;28;20455;-50
2021/03/12 04:25:33;;;;;;;0.70;0.50;;;7.40;99.90;;;;;;5001273;28;20470;-50
2021/03/12 04:28:00;;;;;;;0.80;0.50;;;7.40;99.90;;;;;;5000575;28;20458;-51
2021/03/12 04:30:28;;;;;;;1.37;0.60;;;7.40;99.90;;;;;;4995742;28;20447;-51
2021/03/12 04:32:54;;;;;;;1.20;0.60;;;7.60;99.90;;;;;;4999014;28;20475;-51
2021/03/12 04:35:21;;;;;;;2.10;0.60;;;7.60;99.90;;;;;;4999430;28;20490;-51
2021/03/12 04:37:48;;;;;;;2.00;0.60;;;7.50;99.90;;;;;;4996993;28;20450;-51
2021/03/12 04:40:15;;;;;;;3.23;0.63;;;7.50;99.90;;;;;;4992489;28;20442;-51
2021/03/12 04:42:44;;;;;;;1.60;0.60;;;7.60;99.90;;;;;;4992419;28;20953;-50
2021/03/12 04:45:12;;;;;;;2.17;1.00;;;7.60;99.90;;;;;;4992216;28;20474;-51
2021/03/12 04:47:40;;;;;;;1.10;0.73;;;7.30;99.90;;;;;;4991402;28;20508;-51
2021/03/12 04:50:10;;;;;;;1.27;0.73;;;7.40;99.90;;;;;;4991979;28;20516;-51
2021/03/12 04:52:37;;;;;;;1.70;0.70;;;7.30;99.90;;;;;;4992081;28;20458;-51
2021/03/12 04:55:05;;;;;;;1.20;0.70;;;7.40;99.90;;;;;;4991617;28;20545;-50
2021/03/12 04:57:32;;;;;;;2.03;0.60;;;7.30;99.90;;;;;;4992095;28;20839;-51
2021/03/12 04:59:59;;;;;;;3.90;0.70;;;7.50;99.90;;;;;;4972773;28;20451;-50
2021/03/12 05:02:26;;;;;;;3.27;0.90;;;7.60;99.90;;;;;;4975950;28;20514;-50
2021/03/12 05:04:53;;;;;;;1.03;0.70;;;7.70;99.90;;;;;;4972564;28;20533;-51
2021/03/12 05:07:22;;;;;;;1.90;0.60;;;7.70;99.90;;;;;;4972779;28;20454;-51
2021/03/12 05:09:48;;;;;;;3.07;0.77;;;7.80;99.90;;;;;;4972592;28;20458;-51
2021/03/12 05:12:15;;;;;;;0.90;0.70;;;7.90;99.90;;;;;;4972654;28;20815;-51
2021/03/12 05:14:42;;;;;;;1.63;0.60;;;8.10;99.90;;;;;;4979454;28;20486;-51
2021/03/12 05:17:08;;;;;;;1.00;0.50;;;8.10;99.90;;;;;;4991700;28;20824;-51
2021/03/12 05:19:36;;;;;;;0.60;0.50;;;8.10;99.90;;;;;;4991881;28;20503;-51
2021/03/12 05:22:03;;;;;;;1.93;0.70;;;8.10;99.90;;;;;;4991352;28;20454;-51
2021/03/12 05:24:29;;;;;;;1.97;0.80;;;8.20;99.90;;;;;;4990459;28;20562;-51
2021/03/12 05:26:55;;;;;;;2.60;1.43;;;8.20;99.90;;;;;;4974662;28;20466;-51
2021/03/12 05:29:22;;;;;;;1.47;1.10;;;8.00;99.90;;;;;;4989227;28;20460;-51
2021/03/12 05:31:49;;;;;;;1.83;1.23;;;8.00;99.90;;;;;;5011316;28;20457;-51
2021/03/12 05:34:15;;;;;;;1.03;0.90;;;8.10;99.90;;;;;;5010964;28;20880;-51
2021/03/12 05:36:43;;;;;;;2.53;1.10;;;7.90;99.90;;;;;;5010031;28;20453;-51
2021/03/12 05:39:09;;;;;;;4.20;2.47;;;7.80;99.90;;;;;;5009861;28;20456;-51
2021/03/12 05:41:37;;;;;;;4.10;2.17;;;7.80;99.90;;;;;;5009648;28;20493;-51
2021/03/12 05:44:06;;;;;;;4.20;1.87;;;7.80;99.90;;;;;;4994256;28;20462;-50
2021/03/12 05:46:34;;;;;;;2.63;1.83;;;7.80;99.90;;;;;;4988919;28;20543;-51
2021/03/12 05:49:01;;;;;;;2.63;2.17;;;7.90;99.90;;;;;;4989903;28;20886;-51
2021/03/12 05:51:28;;;;;;;3.60;1.40;;;7.80;99.90;;;;;;4989691;28;20462;-51
2021/03/12 05:53:55;;;;;;;3.20;1.60;;;7.80;99.90;;;;;;4988938;28;20496;-51
2021/03/12 05:56:22;;;;;;;3.67;1.43;;;7.80;99.90;;;;;;4991259;28;20457;-52
2021/03/12 05:58:49;;;;;;;2.77;1.40;;;7.90;99.90;;;;;;4990586;28;20458;-51
2021/03/12 06:01:15;;;;;;;1.53;1.27;;;7.60;99.90;;;;;;4990976;28;20493;-51
2021/03/12 06:03:42;;;;;;;1.37;1.10;;;7.60;99.90;;;;;;4991173;28;20478;-51
2021/03/12 06:06:09;;;;;;;4.33;0.90;;;7.70;99.90;;;;;;5020153;23;20497;-46
2021/03/12 06:08:36;;;;;;;1.83;0.90;;;7.70;99.90;;;;;;5010461;28;20485;-47
2021/03/12 06:11:03;;;;;;;1.53;0.97;;;7.60;99.90;;;;;;5010103;28;20840;-47
2021/03/12 06:13:30;;;;;;;3.90;1.77;;;7.80;99.90;;;;;;5005161;28;20467;-47
2021/03/12 06:15:57;;;;;;;4.60;1.53;;;7.80;99.90;;;;;;5009821;28;20539;-47
2021/03/12 06:18:25;;;;;;;2.60;1.90;;;7.80;99.90;;;;;;5010333;28;20460;-47
2021/03/12 06:20:52;;;;;;;4.70;1.90;;;7.70;99.90;;;;;;5010625;28;20939;-47
2021/03/12 06:23:35;;;;;;;2.30;1.27;;;7.80;99.90;;;;;;5001752;28;20538;-47
2021/03/12 06:26:03;;;;;;;1.63;1.43;;;8.00;99.90;;;;;;5000800;28;20481;-47
2021/03/12 06:28:30;;;;;;;3.43;1.00;;;8.00;99.90;;;;;;5007907;28;20452;-47
2021/03/12 06:30:57;;;;;;;1.70;1.03;;;7.80;99.90;;;;;;5021797;28;20459;-47
2021/03/12 06:33:28;;;;;;;2.30;1.10;;;7.70;99.90;;;;;;5013170;28;20449;-47
2021/03/12 06:35:56;;;;;;;1.03;0.73;;;7.70;99.90;;;;;;4994476;28;20544;-47
2021/03/12 06:38:22;;;;;;;1.80;1.20;;;7.80;99.90;;;;;;5005436;28;20451;-47
2021/03/12 06:40:49;;;;;;;1.83;0.97;;;7.80;99.90;;;;;;5009354;28;20206;-47
2021/03/12 06:43:18;;;;;;;1.77;1.07;;;7.60;99.90;;;;;;5029574;28;20854;-47
2021/03/12 06:45:59;;;;;;;4.17;1.20;;;7.80;99.90;;;;;;4994119;28;20525;-48
2021/03/12 06:48:27;;;;;;;2.50;0.90;;;7.70;99.90;;;;;;5007460;28;20488;-47
2021/03/12 06:50:56;;;;;;;2.00;0.80;;;7.50;99.90;;;;;;5013380;28;20463;-47
2021/03/12 06:53:31;;;;;;;1.10;0.73;;;7.40;99.90;;;;;;5012528;28;21013;-47
2021/03/12 06:55:59;;;;;;;3.97;1.37;;;7.40;99.90;;;;;;5011971;28;20484;-47
2021/03/12 06:58:27;;;;;;;4.30;1.27;;;7.40;99.90;;;;;;5013575;28;20457;-47
2021/03/12 07:00:54;;;;;;;3.17;1.13;;;7.40;99.90;;;;;;5013587;28;20904;-47
2021/03/12 07:03:23;;;;;;;5.93;1.40;;;7.50;99.90;;;;;;5013537;28;20457;-48
2021/03/12 07:06:01;;;;;;;1.07;0.87;;;7.60;99.90;;;;;;5012313;28;20469;-47
2021/03/12 07:08:40;;;;;;;1.80;1.03;;;7.80;99.90;;;;;;5010665;28;20461;-48
2021/03/12 07:11:21;;;;;;;2.37;1.00;;;7.90;99.90;;;;;;5012223;28;20553;-48
2021/03/12 07:13:50;;;;;;;3.97;0.80;;;7.90;99.90;;;;;;5013402;28;20456;-47
2021/03/12 07:16:17;;;;;;;1.63;0.90;;;7.90;99.90;;;;;;5012916;28;20469;-47
2021/03/12 07:18:45;;;;;;;5.60;1.37;;;8.10;99.90;;;;;;5013322;28;20875;-48
2021/03/12 07:21:13;;;;;;;5.07;2.43;;;8.20;99.90;;;;;;5013094;28;20508;-48
2021/03/12 07:23:42;;;;;;;3.90;1.80;;;8.60;99.90;;;;;;5006415;28;20532;-48
2021/03/12 07:26:11;;;;;;;3.57;1.43;;;8.80;99.90;;;;;;4993325;28;20478;-48
2021/03/12 07:28:40;;;;;;;3.60;1.60;;;9.00;99.90;;;;;;4993336;28;20475;-48
2021/03/12 07:31:11;;;;;;;5.03;1.07;;;9.00;99.90;;;;;;4997240;28;20532;-48
2021/03/12 07:33:38;;;;;;;1.57;0.97;;;9.00;99.90;;;;;;5013117;28;20830;-48
2021/03/12 07:36:06;;;;;;;1.50;1.03;;;9.40;99.90;;;;;;5012610;28;20872;-48
2021/03/12 07:38:35;;;;;;;1.17;0.80;;;9.70;99.90;;;;;;5012063;28;20476;-47
2021/03/12 07:41:06;;;;;;;2.90;0.90;;;9.80;99.90;;;;;;5012689;28;20457;-47
2021/03/12 07:43:38;;;;;;;1.87;1.00;;;9.40;99.90;;;;;;5012656;28;20454;-48
2021/03/12 07:46:06;;;;;;;1.80;1.07;;;9.50;99.90;;;;;;5011515;28;20469;-48
2021/03/12 07:48:35;;;;;;;1.80;0.80;;;9.40;99.90;;;;;;5012733;28;20474;-47
2021/03/12 07:51:12;;;;;;;1.47;0.93;;;9.10;99.90;;;;;;5012320;28;20493;-48
2021/03/12 07:53:49;;;;;;;2.47;0.70;;;8.80;99.90;;;;;;4996077;28;20499;-47
2021/03/12 07:56:17;;;;;;;2.17;1.00;;;8.80;99.90;;;;;;4992978;28;20473;-47
2021/03/12 07:58:55;;;;;;;2.80;0.77;;;8.80;99.90;;;;;;4999647;28;20798;-47
2021/03/12 08:01:22;;;;;;;2.20;0.70;;;9.00;99.90;;;;;;5007795;28;21246;-46
2021/03/12 08:03:51;;;;;;;3.77;1.07;;;9.40;99.90;;;;;;5004892;28;20492;-47
2021/03/12 08:06:35;;;;;;;2.80;1.53;;;9.40;99.90;;;;;;5011512;28;21157;-48
2021/03/12 08:09:03;;;;;;;2.43;0.80;;;9.50;99.90;;;;;;5011955;28;20970;-47
2021/03/12 08:11:33;;;;;;;1.70;0.77;;;9.20;99.90;;;;;;5011410;28;20445;-47
2021/03/12 08:14:19;;;;;;;3.20;0.80;;;8.90;99.90;;;;;;5011611;28;20460;-46
2021/03/12 08:17:15;;;;;;;4.50;0.77;;;8.70;99.90;;;;;;5011736;28;20562;-47
2021/03/12 08:19:47;;;;;;;2.07;0.90;;;8.70;99.90;;;;;;5011965;28;20457;-47
2021/03/12 08:22:47;;;;;;;4.23;0.80;;;8.70;99.90;;;;;;5011513;28;20536;-47
2021/03/12 08:25:53;;;;;;;1.13;0.60;;;8.80;99.90;;;;;;5011541;28;21036;-47
2021/03/12 08:28:32;;;;;;;1.60;0.87;;;8.60;99.90;;;;;;5011720;28;20464;-47
2021/03/12 08:31:03;;;;;;;1.83;0.90;;;8.50;99.90;;;;;;5004766;28;20512;-47
2021/03/12 08:33:35;;;;;;;3.60;0.80;;;8.40;99.90;;;;;;5011786;28;20450;-47
2021/03/12 08:36:04;;;;;;;2.47;0.83;;;8.40;99.90;;;;;;5011767;28;20493;-46
2021/03/12 08:38:43;;;;;;;1.20;0.70;;;8.40;99.90;;;;;;5011774;28;20458;-47
2021/03/12 08:41:22;;;;;;;1.17;0.73;;;8.40;99.90;;;;;;5011642;28;20447;-46
2021/03/12 08:43:51;;;;;;;3.80;0.87;;;8.40;99.90;;;;;;4997723;28;20458;-47
2021/03/12 08:46:23;;;;;;;2.60;1.00;;;8.10;99.90;;;;;;4991937;28;20549;-46
2021/03/12 08:48:51;;;;;;;1.10;0.73;;;8.20;99.90;;;;;;4992171;28;20553;-47
2021/03/12 08:51:21;;;;;;;2.20;0.90;;;8.30;99.90;;;;;;4992087;28;20833;-47
2021/03/12 08:53:51;;;;;;;4.23;0.87;;;8.30;99.90;;;;;;4991885;28;20450;-46
2021/03/12 08:56:23;;;;;;;2.90;0.83;;;8.50;99.90;;;;;;4991397;28;20462;-47
2021/03/12 08:58:50;;;;;;;2.40;0.80;;;8.70;99.90;;;;;;5008071;28;20480;-47
2021/03/12 09:01:18;;;;;;;1.60;0.70;;;8.80;99.90;;;;;;5011234;28;20455;-47
2021/03/12 09:03:48;;;;;;;1.57;0.63;;;9.00;99.90;;;;;;5007840;28;20459;-47
2021/03/12 09:06:16;;;;;;;2.87;0.80;;;9.10;99.90;;;;;;5010714;28;20481;-47
2021/03/12 09:08:45;;;;;;;3.30;0.80;;;9.20;99.90;;;;;;5010871;28;20445;-47
2021/03/12 09:11:16;;;;;;;1.20;0.70;;;9.60;99.90;;;;;;5011177;28;20476;-47
2021/03/12 09:13:44;;;;;;;2.50;0.80;;;9.70;99.90;;;;;;5011681;28;20477;-47
2021/03/12 09:16:11;;;;;;;2.70;0.73;;;9.80;99.90;;;;;;5010963;28;20639;-47
2021/03/12 09:18:39;;;;;;;2.47;0.70;;;9.60;99.90;;;;;;5011364;28;20472;-47
2021/03/12 09:21:07;;;;;;;5.03;1.00;;;9.60;99.90;;;;;;5011286;28;20457;-47
2021/03/12 09:23:35;;;;;;;3.17;0.90;;;9.70;99.90;;;;;;5011721;28;20449;-48
2021/03/12 09:26:04;;;;;;;1.93;0.90;;;9.90;99.90;;;;;;5009695;28;20474;-47
2021/03/12 09:28:31;;;;;;;2.00;0.87;;;10.00;99.90;;;;;;5011190;28;20476;-47
2021/03/12 09:30:59;;;;;;;3.27;0.80;;;9.90;99.90;;;;;;5011516;28;20458;-47
2021/03/12 09:33:31;;;;;;;3.43;1.20;;;10.00;99.90;;;;;;5011563;28;20449;-47
2021/03/12 09:35:59;;;;;;;2.00;0.97;;;10.00;99.90;;;;;;5011122;28;21002;-47
2021/03/12 09:38:38;;;;;;;2.50;1.00;;;10.10;99.90;;;;;;5011561;28;20460;-47
2021/03/12 09:41:19;;;;;;;3.73;1.27;;;10.40;99.90;;;;;;5002418;28;20516;-46
2021/03/12 09:43:57;;;;;;;5.30;1.47;;;10.40;99.90;;;;;;4991653;28;20450;-47
2021/03/12 09:46:27;;;;;;;2.00;0.87;;;10.50;99.90;;;;;;4991214;28;20565;-47
2021/03/12 09:48:54;;;;;;;2.27;0.80;;;10.60;99.90;;;;;;4991398;28;20469;-47
2021/03/12 09:51:22;;;;;;;2.80;1.10;;;10.40;99.90;;;;;;4991733;28;20445;-47
2021/03/12 09:53:49;;;;;;;3.60;0.80;;;10.10;99.90;;;;;;4991433;28;20454;-47
2021/03/12 09:56:19;;;;;;;1.87;0.73;;;10.00;99.90;;;;;;5006056;28;20496;-48
2021/03/12 09:58:46;;;;;;;3.80;1.03;;;10.60;99.90;;;;;;5010894;28;20453;-47
2021/03/12 10:01:15;;;;;;;2.43;0.70;;;11.10;99.90;;;;;;5011156;28;20454;-47
2021/03/12 10:03:41;;;;;;;2.17;0.63;;;11.60;99.90;;;;;;5010845;28;20457;-47
2021/03/12 10:06:09;;;;;;;2.77;1.10;;;11.50;99.90;;;;;;5010578;28;20489;-47
2021/03/12 10:09:03;;;;;;;5.13;1.03;;;11.60;99.90;;;;;;5010891;28;20499;-47
2021/03/12 10:11:47;;;;;;;1.43;0.90;;;11.80;99.90;;;;;;4995487;28;20475;-47
2021/03/12 10:14:35;;;;;;;0.90;0.70;;;11.90;99.90;;;;;;4995241;28;20450;-48
2021/03/12 10:17:09;;;;;;;4.13;0.80;;;12.00;99.90;;;;;;4995121;28;20477;-47
2021/03/12 10:19:45;;;;;;;3.37;0.70;;;11.80;99.90;;;;;;4995032;28;20882;-47
2021/03/12 10:22:20;;;;;;;1.60;0.73;;;11.70;99.90;;;;;;4995080;28;20849;-47
2021/03/12 10:24:48;;;;;;;4.80;0.70;;;11.30;99.90;;;;;;5007424;28;20449;-47
2021/03/12 10:27:22;;;;;;;3.33;0.97;;;11.00;99.90;;;;;;5014112;28;20477;-47
2021/03/12 10:29:50;;;;;;;3.07;0.90;;;10.90;99.90;;;;;;5014393;28;20452;-48
2021/03/12 10:32:16;;;;;;;2.60;0.90;;;10.90;99.90;;;;;;5014735;28;20457;-48
2021/03/12 10:34:44;;;;;;;2.17;0.70;;;10.80;99.90;;;;;;5014394;28;20489;-47
2021/03/12 10:37:13;;;;;;;2.67;0.80;;;10.70;99.90;;;;;;5014506;28;20481;-47
2021/03/12 10:39:43;;;;;;;2.17;0.80;;;10.70;99.90;;;;;;4997071;28;20827;-47
2021/03/12 10:42:11;;;;;;;3.23;0.80;;;10.60;99.90;;;;;;4994877;28;20516;-48
2021/03/12 10:44:52;;;;;;;2.17;0.80;;;10.70;99.90;;;;;;4994536;28;20446;-48
2021/03/12 10:47:18;;;;;;;3.07;1.00;;;10.80;99.90;;;;;;4994550;28;20469;-48
2021/03/12 10:49:45;;;;;;;3.13;0.90;;;10.80;99.90;;;;;;4994922;28;20454;-48
2021/03/12 10:52:21;;;;;;;1.50;0.60;;;10.60;99.90;;;;;;4996318;28;20450;-48
2021/03/12 10:54:47;;;;;;;2.07;0.90;;;10.80;99.90;;;;;;5013853;28;21084;-47
2021/03/12 10:57:14;;;;;;;1.57;0.70;;;10.60;99.90;;;;;;5013003;28;20473;-47
2021/03/12 10:59:57;;;;;;;2.13;0.80;;;10.60;99.90;;;;;;5012123;28;20499;-47
2021/03/12 11:02:35;;;;;;;2.43;0.80;;;10.20;99.90;;;;;;5013388;28;20504;-48
2021/03/12 11:05:01;;;;;;;2.20;0.80;;;10.20;99.90;;;;;;5013254;28;20532;-47
2021/03/12 11:07:28;;;;;;;1.93;0.90;;;10.20;99.90;;;;;;5003858;28;20481;-47
2021/03/12 11:09:54;;;;;;;2.43;0.90;;;10.30;99.90;;;;;;5006687;28;20456;-48
2021/03/12 11:12:21;;;;;;;3.47;0.80;;;10.20;99.90;;;;;;5013083;28;20454;-47
2021/03/12 11:14:48;;;;;;;1.97;0.80;;;10.20;99.90;;;;;;5012825;28;20878;-47
2021/03/12 11:17:16;;;;;;;3.40;0.77;;;9.90;99.90;;;;;;5013143;28;20500;-47
2021/03/12 11:19:43;;;;;;;1.67;0.80;;;9.90;99.90;;;;;;5012989;28;20983;-47
2021/03/12 11:22:09;;;;;;;1.93;0.70;;;10.20;99.90;;;;;;5011332;28;20480;-47
2021/03/12 11:24:36;;;;;;;1.93;0.87;;;10.30;99.90;;;;;;5012718;28;20457;-47
2021/03/12 11:27:04;;;;;;;2.57;0.97;;;10.50;99.90;;;;;;5013224;28;20484;-47
2021/03/12 11:29:32;;;;;;;3.10;0.73;;;10.70;99.90;;;;;;5012935;28;20449;-47
2021/03/12 11:31:59;;;;;;;2.30;0.90;;;11.00;99.90;;;;;;5013073;28;20465;-47
2021/03/12 11:34:27;;;;;;;3.10;1.00;;;11.50;99.90;;;;;;5012662;28;20523;-47
2021/03/12 11:36:54;;;;;;;3.17;1.00;;;11.90;99.90;;;;;;5012369;28;20481;-47
2021/03/12 11:39:21;;;;;;;1.43;1.00;;;12.30;99.90;;;;;;5012692;28;20450;-47
2021/03/12 11:41:47;;;;;;;2.57;1.20;;;12.40;99.90;;;;;;5012659;28;20947;-48
2021/03/12 11:44:15;;;;;;;2.10;0.90;;;12.50;99.90;;;;;;5012460;28;20476;-47
2021/03/12 11:46:42;;;;;;;1.43;0.80;;;12.40;99.90;;;;;;5012722;28;20466;-47
2021/03/12 11:49:08;;;;;;;2.83;0.90;;;12.40;99.90;;;;;;5012280;28;20468;-47
2021/03/12 11:51:38;;;;;;;1.53;0.90;;;12.40;99.90;;;;;;4996075;28;20454;-47
2021/03/12 11:54:05;;;;;;;1.00;0.90;;;12.40;99.90;;;;;;4998121;28;20453;-47
2021/03/12 11:56:32;;;;;;;1.00;1.00;;;12.20;99.90;;;;;;5011806;28;20512;-47
2021/03/12 11:58:59;;;;;;;2.63;0.90;;;12.00;99.90;;;;;;5012045;28;20461;-47
2021/03/12 12:01:25;;;;;;;1.33;0.80;;;11.80;99.90;;;;;;5012570;28;20499;-47
2021/03/12 12:03:53;;;;;;;4.40;0.83;;;11.60;99.90;;;;;;5012208;28;20473;-46
2021/03/12 12:06:19;;;;;;;1.57;0.83;;;11.60;99.90;;;;;;5035768;22;20499;-51
2021/03/12 12:08:47;;;;;;;3.17;0.97;;;11.60;99.90;;;;;;5027779;28;20500;-50
2021/03/12 12:11:13;;;;;;;1.47;0.67;;;11.50;99.90;;;;;;5023144;28;20985;-51
2021/03/12 12:13:40;;;;;;;1.83;0.80;;;11.50;99.90;;;;;;5012679;28;20450;-52
2021/03/12 12:16:07;;;;;;;1.33;0.80;;;11.70;99.90;;;;;;5027833;28;20565;-50
2021/03/12 12:18:33;;;;;;;1.63;0.90;;;11.50;99.60;;;;;;5032403;28;20461;-50
2021/03/12 12:21:00;;;;;;;1.17;0.60;;;11.40;99.90;;;;;;5025485;28;20469;-51
2021/03/12 12:23:27;;;;;;;1.73;0.90;;;11.10;99.90;;;;;;5012541;28;20472;-51
2021/03/12 12:25:54;;;;;;;2.27;1.00;;;11.20;99.90;;;;;;5012161;28;20473;-51
2021/03/12 12:28:20;;;;;;;2.40;0.83;;;11.30;99.90;;;;;;5011848;28;20823;-51
2021/03/12 12:30:47;;;;;;;4.13;1.00;;;11.30;99.90;;;;;;5011955;28;20456;-51
2021/03/12 12:33:13;;;;;;;4.93;1.10;;;11.60;99.90;;;;;;5011623;28;20462;-52
2021/03/12 12:35:40;;;;;;;2.50;0.90;;;12.00;99.90;;;;;;5011784;28;20481;-51
2021/03/12 12:38:06;;;;;;;1.17;0.80;;;12.30;99.90;;;;;;5018700;28;20806;-52
2021/03/12 12:40:34;;;;;;;1.93;0.70;;;12.30;99.90;;;;;;5031562;28;20453;-50
2021/03/12 12:43:01;;;;;;;1.90;0.90;;;12.70;99.90;;;;;;5031442;28;20448;-51
2021/03/12 12:45:29;;;;;;;3.00;1.00;;;12.60;99.90;;;;;;5031134;28;20828;-52
2021/03/12 12:47:56;;;;;;;1.30;0.70;;;12.30;99.00;;;;;;5031496;28;20473;-52
2021/03/12 12:50:22;;;;;;;1.13;0.90;;;11.90;99.90;;;;;;5031593;28;20461;-51
2021/03/12 12:52:49;;;;;;;1.73;0.80;;;11.90;99.60;;;;;;5031393;28;20480;-51
2021/03/12 12:55:16;;;;;;;1.17;0.70;;;11.70;98.80;;;;;;5017784;28;21048;-50
2021/03/12 12:57:42;;;;;;;3.27;0.80;;;11.60;99.90;;;;;;5011474;28;20474;-51
2021/03/12 13:00:12;;;;;;;4.23;0.90;;;11.60;99.90;;;;;;5011282;28;20450;-52
2021/03/12 13:02:39;;;;;;;1.40;0.80;;;11.60;99.90;;;;;;5021450;28;20445;-51
2021/03/12 13:05:07;;;;;;;4.83;0.83;;;11.60;99.90;;;;;;5013355;28;20979;-51
2021/03/12 13:07:34;;;;;;;7.43;1.00;;;11.50;99.30;;;;;;5011853;28;20508;-51